Time;durP1;ratioP1;P1;durP2;ratioP2;P2;SDS_P1;SDS_P2;PMS_P1;PMS_P2;Temp;Humidity;BMP_temperature;BMP_pressure;BME280_temperature;BME280_humidity;BME280_pressure;Samples;Min_cycle;Max_cycle;Signal;HPM_P1;HPM_P2
2024/01/11 00:00:32;;;;;;;19.30;8.67;;;;;;;;;;5074451;28;20570;-68
2024/01/11 00:02:59;;;;;;;14.93;6.27;;;;;;;;;;5057187;28;20523;-68
2024/01/11 00:05:27;;;;;;;16.80;6.70;;;;;;;;;;5074637;28;20432;-68
2024/01/11 00:07:54;;;;;;;17.63;7.13;;;;;;;;;;5057273;28;20516;-68
2024/01/11 00:10:21;;;;;;;18.70;8.63;;;;;;;;;;5075020;28;20491;-68
2024/01/11 00:12:48;;;;;;;20.10;8.63;;;;;;;;;;5108418;28;20427;-68
2024/01/11 00:15:15;;;;;;;21.47;9.27;;;;;;;;;;5080638;28;20457;-68
2024/01/11 00:17:42;;;;;;;22.63;9.77;;;;;;;;;;5115109;28;20430;-68
2024/01/11 00:20:10;;;;;;;22.03;9.43;;;;;;;;;;5097223;28;20473;-68
2024/01/11 00:22:37;;;;;;;18.40;8.67;;;;;;;;;;5080587;28;20536;-68
2024/01/11 00:25:04;;;;;;;22.13;9.87;;;;;;;;;;5114855;28;20432;-67
2024/01/11 00:27:31;;;;;;;17.97;8.03;;;;;;;;;;5080522;28;20750;-68
2024/01/11 00:29:58;;;;;;;20.73;9.57;;;;;;;;;;5079832;28;20793;-68
2024/01/11 00:32:24;;;;;;;22.30;10.43;;;;;;;;;;5114753;28;20407;-68
2024/01/11 00:34:52;;;;;;;22.67;10.70;;;;;;;;;;5096492;28;20441;-68
2024/01/11 00:37:19;;;;;;;17.20;9.47;;;;;;;;;;5114629;28;20418;-68
2024/01/11 00:39:46;;;;;;;20.63;10.33;;;;;;;;;;5080120;28;20432;-68
2024/01/11 00:42:12;;;;;;;21.80;9.37;;;;;;;;;;5096376;28;20982;-68
2024/01/11 00:44:39;;;;;;;21.03;9.53;;;;;;;;;;5096259;28;20423;-67
2024/01/11 00:47:06;;;;;;;23.30;10.93;;;;;;;;;;5114442;28;20515;-67
2024/01/11 00:49:32;;;;;;;23.87;11.43;;;;;;;;;;5096207;28;20441;-68
2024/01/11 00:51:59;;;;;;;14.70;8.20;;;;;;;;;;5114523;28;20816;-68
2024/01/11 00:54:26;;;;;;;18.20;10.13;;;;;;;;;;5096196;28;20925;-68
2024/01/11 00:56:52;;;;;;;20.07;10.53;;;;;;;;;;5096143;28;20420;-68
2024/01/11 00:59:19;;;;;;;22.20;11.90;;;;;;;;;;5114406;28;20453;-68
2024/01/11 01:01:55;;;;;;;20.73;11.57;;;;;;;;;;5114076;28;20454;-68
2024/01/11 01:04:53;;;;;;;18.07;10.33;;;;;;;;;;5112739;28;20457;-68
2024/01/11 01:07:20;;;;;;;20.83;11.60;;;;;;;;;;5096093;28;20897;-68
2024/01/11 01:09:47;;;;;;;19.33;11.17;;;;;;;;;;5114940;28;20800;-68
2024/01/11 01:12:13;;;;;;;18.20;10.30;;;;;;;;;;5096203;28;20906;-68
2024/01/11 01:49:32;;;;;;;11.13;6.90;;;;;;;;;;5114589;28;20379;-68
2024/01/11 01:51:58;;;;;;;12.07;5.47;;;;;;;;;;5113805;28;20422;-68
2024/01/11 01:54:25;;;;;;;11.23;6.10;;;;;;;;;;5095840;28;20952;-68
2024/01/11 01:56:52;;;;;;;10.50;5.73;;;;;;;;;;5095484;28;20454;-68
2024/01/11 01:59:18;;;;;;;10.30;5.80;;;;;;;;;;5095642;28;20958;-68
2024/01/11 02:01:45;;;;;;;10.93;5.83;;;;;;;;;;5114173;28;20462;-68
2024/01/11 02:04:12;;;;;;;9.77;5.60;;;;;;;;;;5113611;28;20426;-68
2024/01/11 02:10:38;;;;;;;11.57;5.90;;;;;;;;;;5117198;28;20932;-68
2024/01/11 02:13:05;;;;;;;9.23;5.17;;;;;;;;;;5117742;28;20508;-68
2024/01/11 02:15:36;;;;;;;10.87;5.33;;;;;;;;;;5083266;28;20434;-68
2024/01/11 02:18:03;;;;;;;9.33;5.17;;;;;;;;;;5082412;28;20446;-68
2024/01/11 02:20:30;;;;;;;9.00;4.93;;;;;;;;;;5117825;28;20469;-68
2024/01/11 02:22:58;;;;;;;11.00;4.70;;;;;;;;;;5099687;28;20419;-68
2024/01/11 02:25:25;;;;;;;12.07;4.70;;;;;;;;;;5082655;28;20418;-67
2024/01/11 02:27:51;;;;;;;6.57;4.43;;;;;;;;;;5117975;28;20413;-68
2024/01/11 02:30:18;;;;;;;7.27;4.17;;;;;;;;;;5082249;28;20465;-68
2024/01/11 02:32:48;;;;;;;9.10;4.23;;;;;;;;;;5099695;28;20444;-68
2024/01/11 02:35:15;;;;;;;7.03;3.53;;;;;;;;;;5099160;28;20758;-68
2024/01/11 02:37:42;;;;;;;7.10;3.80;;;;;;;;;;5098992;28;20438;-67
2024/01/11 02:40:09;;;;;;;6.43;3.70;;;;;;;;;;5099148;28;20518;-68
2024/01/11 02:42:54;;;;;;;8.43;4.33;;;;;;;;;;5118076;28;20773;-67
2024/01/11 02:45:20;;;;;;;6.73;4.10;;;;;;;;;;5081903;28;20418;-68
2024/01/11 02:48:05;;;;;;;9.07;4.50;;;;;;;;;;5081750;28;20487;-68
2024/01/11 02:50:32;;;;;;;7.47;4.33;;;;;;;;;;5041956;28;20412;-68
2024/01/11 02:52:59;;;;;;;7.03;4.10;;;;;;;;;;5075746;28;20434;-68
2024/01/11 02:55:26;;;;;;;8.70;4.30;;;;;;;;;;5058355;28;20934;-68
2024/01/11 02:57:52;;;;;;;10.07;4.57;;;;;;;;;;5057882;28;20435;-68
2024/01/11 03:00:19;;;;;;;6.10;4.33;;;;;;;;;;5076625;28;20463;-68
2024/01/11 03:02:45;;;;;;;9.37;5.10;;;;;;;;;;5075585;28;20737;-67
2024/01/11 03:05:12;;;;;;;9.33;4.50;;;;;;;;;;5057767;28;20421;-68
2024/01/11 03:07:57;;;;;;;9.50;4.30;;;;;;;;;;5075516;28;20392;-68
2024/01/11 03:10:23;;;;;;;7.80;4.23;;;;;;;;;;5076287;28;20501;-68
2024/01/11 03:12:50;;;;;;;7.80;3.87;;;;;;;;;;5075951;28;20482;-68
2024/01/11 03:15:17;;;;;;;7.93;4.13;;;;;;;;;;5074456;28;20758;-70
2024/01/11 03:17:43;;;;;;;6.10;4.13;;;;;;;;;;5075022;28;20432;-68
2024/01/11 03:20:10;;;;;;;6.10;4.57;;;;;;;;;;5074914;28;20416;-69
2024/01/11 03:22:37;;;;;;;10.50;4.80;;;;;;;;;;5074038;28;20472;-68
2024/01/11 03:25:04;;;;;;;8.23;4.60;;;;;;;;;;5057482;28;20772;-67
2024/01/11 03:27:30;;;;;;;7.53;4.17;;;;;;;;;;5075599;28;20748;-68
2024/01/11 03:29:57;;;;;;;8.10;3.83;;;;;;;;;;5075836;28;20472;-69
2024/01/11 03:32:24;;;;;;;8.87;4.43;;;;;;;;;;5057720;28;20428;-70
2024/01/11 03:34:51;;;;;;;5.73;3.27;;;;;;;;;;5037875;28;20477;-69
2024/01/11 03:37:18;;;;;;;6.73;3.97;;;;;;;;;;5074904;28;20457;-69
2024/01/11 03:39:44;;;;;;;7.47;5.20;;;;;;;;;;5057217;28;20418;-69
2024/01/11 03:42:11;;;;;;;9.03;4.30;;;;;;;;;;5056823;28;20463;-69
2024/01/11 03:44:38;;;;;;;8.90;4.07;;;;;;;;;;5057124;28;20436;-70
2024/01/11 03:47:06;;;;;;;7.90;4.87;;;;;;;;;;5057042;28;20498;-70
2024/01/11 03:49:33;;;;;;;7.73;4.83;;;;;;;;;;5041456;28;20420;-70
2024/01/11 03:52:00;;;;;;;8.27;4.53;;;;;;;;;;5040760;28;20891;-71
2024/01/11 03:54:27;;;;;;;7.80;4.50;;;;;;;;;;5024389;28;20427;-72
2024/01/11 03:56:55;;;;;;;5.40;3.70;;;;;;;;;;5041093;28;20439;-67
2024/01/11 03:59:21;;;;;;;10.47;5.00;;;;;;;;;;5074426;28;20508;-67
2024/01/11 04:01:48;;;;;;;10.07;4.93;;;;;;;;;;5056727;28;20469;-67
2024/01/11 04:04:22;;;;;;;8.23;4.63;;;;;;;;;;5040639;28;20434;-67
2024/01/11 04:06:54;;;;;;;7.50;4.67;;;;;;;;;;5058027;28;20401;-68
2024/01/11 04:09:21;;;;;;;9.60;4.80;;;;;;;;;;5056587;28;20955;-67
2024/01/11 04:11:48;;;;;;;10.63;5.03;;;;;;;;;;5056429;28;20434;-67
2024/01/11 04:14:15;;;;;;;8.03;4.57;;;;;;;;;;5075141;28;20429;-67
2024/01/11 04:16:59;;;;;;;7.80;4.17;;;;;;;;;;5074435;28;20372;-67
2024/01/11 04:23:27;;;;;;;8.30;4.17;;;;;;;;;;5074324;28;20442;-67
2024/01/11 04:25:53;;;;;;;9.27;4.70;;;;;;;;;;5056616;28;20444;-67
2024/01/11 04:28:38;;;;;;;7.37;4.57;;;;;;;;;;5056569;28;20504;-69
2024/01/11 04:31:04;;;;;;;8.47;5.17;;;;;;;;;;5056163;28;20428;-68
2024/01/11 04:33:31;;;;;;;13.53;4.67;;;;;;;;;;5039499;28;20417;-69
2024/01/11 04:35:57;;;;;;;6.37;4.13;;;;;;;;;;5056107;28;20466;-70
2024/01/11 04:38:24;;;;;;;6.70;3.77;;;;;;;;;;5056078;28;20771;-71
2024/01/11 04:44:44;;;;;;;7.77;4.23;;;;;;;;;;5073876;28;20396;-69
2024/01/11 04:47:11;;;;;;;9.77;4.77;;;;;;;;;;5055973;28;20483;-68
2024/01/11 04:49:37;;;;;;;7.73;4.80;;;;;;;;;;5073850;28;20424;-68
2024/01/11 04:52:04;;;;;;;8.50;4.70;;;;;;;;;;5039537;28;20512;-68
2024/01/11 04:54:49;;;;;;;10.17;4.73;;;;;;;;;;5073812;28;20391;-68
2024/01/11 04:57:16;;;;;;;10.33;4.13;;;;;;;;;;5055965;28;20417;-68
2024/01/11 04:59:43;;;;;;;7.17;4.30;;;;;;;;;;5073922;28;20498;-67
2024/01/11 05:02:10;;;;;;;7.87;5.00;;;;;;;;;;5055619;28;20460;-68
2024/01/11 05:04:37;;;;;;;9.30;5.03;;;;;;;;;;5055980;28;20810;-68
2024/01/11 05:07:03;;;;;;;9.70;4.90;;;;;;;;;;5055617;28;20430;-68
2024/01/11 05:09:30;;;;;;;8.73;4.70;;;;;;;;;;5055576;28;20432;-68
2024/01/11 05:11:57;;;;;;;14.30;5.53;;;;;;;;;;5073929;28;20418;-67
2024/01/11 05:14:26;;;;;;;10.43;4.67;;;;;;;;;;5055928;28;20424;-68
2024/01/11 05:16:53;;;;;;;9.83;4.60;;;;;;;;;;5056017;28;20933;-68
2024/01/11 05:19:19;;;;;;;8.20;4.23;;;;;;;;;;5073585;28;20431;-67
2024/01/11 05:21:46;;;;;;;7.73;4.10;;;;;;;;;;5073318;28;20467;-67
2024/01/11 05:24:13;;;;;;;7.50;3.80;;;;;;;;;;5055588;28;20838;-68
2024/01/11 05:26:39;;;;;;;9.30;4.03;;;;;;;;;;5039246;28;20428;-68
2024/01/11 05:29:24;;;;;;;7.43;4.23;;;;;;;;;;5043908;28;20733;-68
2024/01/11 05:31:50;;;;;;;7.17;4.23;;;;;;;;;;5073729;28;20415;-68
2024/01/11 05:34:17;;;;;;;9.57;4.73;;;;;;;;;;5073467;28;20439;-68
2024/01/11 05:36:44;;;;;;;10.13;4.80;;;;;;;;;;5073138;28;20413;-67
2024/01/11 05:39:11;;;;;;;7.10;3.73;;;;;;;;;;5055526;28;20433;-68
2024/01/11 05:41:38;;;;;;;10.20;4.83;;;;;;;;;;5038947;28;20801;-68
2024/01/11 05:44:05;;;;;;;8.97;4.73;;;;;;;;;;5039503;28;20537;-68
2024/01/11 05:46:32;;;;;;;9.70;5.00;;;;;;;;;;5042877;28;20443;-68
2024/01/11 05:48:59;;;;;;;6.83;4.40;;;;;;;;;;5043731;28;20922;-68
2024/01/11 05:51:26;;;;;;;7.67;4.80;;;;;;;;;;5059523;28;20464;-68
2024/01/11 05:53:53;;;;;;;6.80;4.37;;;;;;;;;;5077053;28;20420;-68
2024/01/11 05:56:23;;;;;;;6.40;3.90;;;;;;;;;;5077470;28;20411;-68
2024/01/11 05:58:50;;;;;;;8.27;4.67;;;;;;;;;;5058930;28;20555;-68
2024/01/11 06:01:17;;;;;;;10.27;5.00;;;;;;;;;;5059201;28;20459;-68
2024/01/11 06:04:01;;;;;;;7.73;5.00;;;;;;;;;;5076879;28;20412;-67
2024/01/11 06:06:29;;;;;;;7.97;4.40;;;;;;;;;;5076688;28;20418;-68
2024/01/11 06:09:13;;;;;;;7.47;4.43;;;;;;;;;;5045257;28;20427;-68
2024/01/11 06:11:40;;;;;;;11.57;4.90;;;;;;;;;;5058746;28;20447;-67
2024/01/11 06:14:07;;;;;;;6.83;4.50;;;;;;;;;;5042632;28;20427;-68
2024/01/11 06:16:35;;;;;;;8.93;5.27;;;;;;;;;;5058958;28;20494;-68
2024/01/11 06:19:02;;;;;;;11.47;5.30;;;;;;;;;;5076640;28;20808;-68
2024/01/11 06:21:29;;;;;;;9.60;4.30;;;;;;;;;;5042498;28;21077;-67
2024/01/11 06:23:56;;;;;;;8.27;4.30;;;;;;;;;;5041775;28;20442;-68
2024/01/11 06:26:23;;;;;;;6.10;3.90;;;;;;;;;;5076114;28;20432;-68
2024/01/11 06:28:50;;;;;;;10.27;3.97;;;;;;;;;;5076385;28;20463;-67
2024/01/11 06:31:18;;;;;;;7.20;3.67;;;;;;;;;;5058810;28;20464;-68
2024/01/11 06:33:45;;;;;;;7.97;3.77;;;;;;;;;;5058404;28;20425;-68
2024/01/11 06:36:16;;;;;;;7.83;3.93;;;;;;;;;;5042353;28;20533;-68
2024/01/11 06:38:43;;;;;;;6.93;4.37;;;;;;;;;;5058414;28;20441;-68
2024/01/11 06:41:10;;;;;;;8.97;4.27;;;;;;;;;;5041704;28;20450;-68
2024/01/11 06:43:40;;;;;;;7.97;4.47;;;;;;;;;;5042066;28;20470;-68
2024/01/11 06:46:09;;;;;;;8.90;4.70;;;;;;;;;;5024147;28;20430;-68
2024/01/11 06:52:34;;;;;;;6.73;4.23;;;;;;;;;;5076123;28;20427;-67
2024/01/11 06:55:19;;;;;;;6.13;4.00;;;;;;;;;;5060797;28;20403;-68
2024/01/11 06:57:48;;;;;;;8.97;4.23;;;;;;;;;;5058075;28;20473;-67
2024/01/11 07:00:15;;;;;;;11.70;4.80;;;;;;;;;;5041912;28;20779;-67
2024/01/11 07:02:42;;;;;;;9.47;4.77;;;;;;;;;;5057716;28;20483;-67
2024/01/11 07:05:09;;;;;;;10.83;5.63;;;;;;;;;;5075543;28;20907;-68
2024/01/11 07:07:35;;;;;;;6.20;4.00;;;;;;;;;;5057948;28;20819;-67
2024/01/11 07:10:05;;;;;;;9.17;4.20;;;;;;;;;;5058252;28;20828;-68
2024/01/11 07:12:32;;;;;;;7.60;4.23;;;;;;;;;;5041649;28;20462;-68
2024/01/11 07:15:17;;;;;;;11.57;4.03;;;;;;;;;;5060529;28;20945;-68
2024/01/11 07:17:44;;;;;;;12.00;5.20;;;;;;;;;;5041116;28;20539;-68
2024/01/11 07:20:11;;;;;;;7.10;4.43;;;;;;;;;;5041576;28;20843;-68
2024/01/11 07:22:38;;;;;;;9.60;4.80;;;;;;;;;;5040975;28;20471;-68
2024/01/11 07:25:07;;;;;;;9.93;5.07;;;;;;;;;;5058627;28;20427;-67
2024/01/11 07:27:35;;;;;;;9.53;5.10;;;;;;;;;;5057209;28;20430;-68
2024/01/11 07:30:03;;;;;;;7.47;4.93;;;;;;;;;;5057846;28;20445;-68
2024/01/11 07:32:29;;;;;;;8.27;5.27;;;;;;;;;;5041076;28;20426;-68
2024/01/11 07:34:57;;;;;;;8.37;4.70;;;;;;;;;;5040915;28;20535;-68
2024/01/11 07:37:25;;;;;;;9.13;4.77;;;;;;;;;;5041338;28;20448;-68
2024/01/11 07:39:52;;;;;;;11.17;4.73;;;;;;;;;;5057778;28;20468;-68
2024/01/11 07:42:39;;;;;;;11.87;5.50;;;;;;;;;;5060189;28;20606;-68
2024/01/11 07:45:06;;;;;;;11.60;4.77;;;;;;;;;;5060537;28;20447;-68
2024/01/11 07:47:50;;;;;;;6.60;4.77;;;;;;;;;;5075397;28;20428;-68
2024/01/11 07:50:18;;;;;;;6.70;4.47;;;;;;;;;;5057589;28;20440;-68
2024/01/11 07:52:45;;;;;;;6.63;4.37;;;;;;;;;;5057658;28;20523;-68
2024/01/11 07:55:12;;;;;;;9.27;4.50;;;;;;;;;;5074873;28;20452;-68
2024/01/11 07:57:40;;;;;;;7.37;4.17;;;;;;;;;;5056891;28;20944;-67
2024/01/11 08:00:06;;;;;;;8.30;4.43;;;;;;;;;;5074890;28;20457;-68
2024/01/11 08:06:38;;;;;;;10.03;4.47;;;;;;;;;;5074264;28;20383;-68
2024/01/11 08:09:05;;;;;;;6.93;3.97;;;;;;;;;;5074067;28;20436;-68
2024/01/11 08:11:32;;;;;;;19.63;8.33;;;;;;;;;;5074501;28;20434;-68
2024/01/11 08:14:05;;;;;;;25.47;10.23;;;;;;;;;;5041036;28;20435;-68
2024/01/11 08:16:32;;;;;;;11.57;5.37;;;;;;;;;;5056874;28;20523;-68
2024/01/11 08:19:00;;;;;;;10.30;4.30;;;;;;;;;;5074104;28;20424;-68
2024/01/11 08:21:28;;;;;;;8.20;4.10;;;;;;;;;;5040623;28;20440;-68
2024/01/11 08:23:55;;;;;;;9.23;4.37;;;;;;;;;;5056330;28;20436;-68
2024/01/11 08:26:28;;;;;;;10.37;4.57;;;;;;;;;;5057576;28;20449;-68
2024/01/11 08:28:54;;;;;;;12.40;4.60;;;;;;;;;;5074435;28;20440;-68
2024/01/11 08:31:21;;;;;;;8.93;4.60;;;;;;;;;;5056786;28;20439;-68
2024/01/11 08:33:48;;;;;;;8.47;4.40;;;;;;;;;;5056925;28;20447;-68
2024/01/11 08:36:15;;;;;;;11.90;5.10;;;;;;;;;;5073809;28;20447;-68
2024/01/11 08:38:41;;;;;;;8.40;4.73;;;;;;;;;;5056658;28;20522;-68
2024/01/11 08:41:08;;;;;;;8.80;5.50;;;;;;;;;;5056032;28;20911;-68
2024/01/11 08:43:35;;;;;;;7.27;4.30;;;;;;;;;;5039714;28;20478;-68
2024/01/11 08:46:02;;;;;;;8.93;4.23;;;;;;;;;;5039670;28;20449;-68
2024/01/11 08:48:29;;;;;;;11.07;4.67;;;;;;;;;;5073756;28;20440;-68
2024/01/11 08:50:56;;;;;;;7.23;4.13;;;;;;;;;;5056215;28;20483;-68
2024/01/11 08:53:23;;;;;;;12.27;5.07;;;;;;;;;;5056016;28;20466;-68
2024/01/11 08:55:49;;;;;;;9.20;4.73;;;;;;;;;;5073643;28;20431;-68
2024/01/11 08:58:16;;;;;;;7.47;4.30;;;;;;;;;;5056985;28;20495;-68
2024/01/11 09:00:44;;;;;;;7.60;3.67;;;;;;;;;;5039459;28;20848;-68
2024/01/11 09:03:12;;;;;;;5.17;3.07;;;;;;;;;;5039419;28;20468;-68
2024/01/11 09:05:39;;;;;;;8.90;3.60;;;;;;;;;;5039803;28;20535;-68
2024/01/11 09:08:07;;;;;;;6.00;3.30;;;;;;;;;;5056118;28;20436;-68
2024/01/11 09:10:33;;;;;;;6.93;3.30;;;;;;;;;;5056380;28;20435;-68
2024/01/11 09:13:00;;;;;;;6.13;3.23;;;;;;;;;;5056355;28;20737;-68
2024/01/11 09:15:27;;;;;;;4.93;3.03;;;;;;;;;;5074028;28;20428;-68
2024/01/11 09:17:54;;;;;;;5.20;2.70;;;;;;;;;;5039528;28;20825;-68
2024/01/11 09:20:20;;;;;;;7.03;3.40;;;;;;;;;;5058714;28;20429;-68
2024/01/11 09:22:47;;;;;;;6.63;3.07;;;;;;;;;;5076569;28;20463;-68
2024/01/11 09:25:14;;;;;;;9.17;4.00;;;;;;;;;;5043566;28;20424;-68
2024/01/11 09:27:41;;;;;;;9.10;4.00;;;;;;;;;;5060830;28;20783;-68
2024/01/11 09:30:08;;;;;;;5.10;2.93;;;;;;;;;;5059966;28;20814;-68
2024/01/11 09:32:35;;;;;;;5.40;3.60;;;;;;;;;;5043204;28;20451;-69
2024/01/11 09:35:04;;;;;;;7.93;3.30;;;;;;;;;;5077605;28;20424;-68
2024/01/11 09:37:31;;;;;;;7.47;4.20;;;;;;;;;;5060970;28;20432;-68
2024/01/11 09:40:00;;;;;;;6.77;3.60;;;;;;;;;;5078379;28;20444;-68
2024/01/11 09:42:28;;;;;;;9.37;3.93;;;;;;;;;;5059738;28;20451;-68
2024/01/11 09:44:55;;;;;;;8.00;5.50;;;;;;;;;;5076875;28;20494;-68
2024/01/11 09:47:25;;;;;;;9.50;4.87;;;;;;;;;;5023422;28;20760;-68
2024/01/11 09:49:53;;;;;;;13.83;5.43;;;;;;;;;;5073754;28;20755;-69
2024/01/11 09:52:20;;;;;;;9.13;4.57;;;;;;;;;;5068747;28;20416;-68
2024/01/11 09:54:47;;;;;;;11.03;6.17;;;;;;;;;;5042745;28;20428;-68
2024/01/11 09:57:14;;;;;;;8.53;4.73;;;;;;;;;;5042746;28;20431;-68
2024/01/11 09:59:41;;;;;;;7.47;3.20;;;;;;;;;;5059226;28;20463;-68
2024/01/11 10:02:08;;;;;;;11.13;5.70;;;;;;;;;;5059555;28;20447;-68
2024/01/11 10:04:36;;;;;;;6.53;2.97;;;;;;;;;;5042683;28;20435;-68
2024/01/11 10:07:04;;;;;;;10.53;5.17;;;;;;;;;;5043873;28;20543;-68
2024/01/11 10:09:31;;;;;;;10.33;4.73;;;;;;;;;;5049039;28;20479;-69
2024/01/11 10:11:58;;;;;;;8.40;3.90;;;;;;;;;;5059000;28;20412;-68
2024/01/11 10:14:25;;;;;;;7.63;3.40;;;;;;;;;;5042420;28;20440;-68
2024/01/11 10:16:53;;;;;;;7.70;3.50;;;;;;;;;;5042220;28;20451;-68
2024/01/11 10:19:21;;;;;;;8.47;3.60;;;;;;;;;;5076995;28;20431;-68
2024/01/11 10:22:05;;;;;;;9.90;4.27;;;;;;;;;;5047302;28;20396;-68
2024/01/11 10:24:32;;;;;;;7.73;3.63;;;;;;;;;;5042478;28;21002;-68
2024/01/11 10:27:16;;;;;;;7.07;3.40;;;;;;;;;;5061455;28;20424;-69
2024/01/11 10:29:44;;;;;;;13.47;5.00;;;;;;;;;;5058642;28;20785;-68
2024/01/11 10:32:28;;;;;;;9.13;4.40;;;;;;;;;;5044885;28;20489;-69
2024/01/11 10:34:56;;;;;;;7.33;4.07;;;;;;;;;;5059048;28;20409;-69
2024/01/11 10:37:40;;;;;;;16.30;5.77;;;;;;;;;;5061555;28;20405;-68
2024/01/11 10:40:10;;;;;;;6.90;3.93;;;;;;;;;;5059372;28;20487;-69
2024/01/11 10:42:55;;;;;;;6.13;3.80;;;;;;;;;;5047240;28;20452;-68
2024/01/11 10:45:22;;;;;;;4.00;2.60;;;;;;;;;;5058360;28;20419;-68
2024/01/11 10:48:07;;;;;;;4.17;2.47;;;;;;;;;;5059253;28;20871;-69
2024/01/11 10:50:39;;;;;;;4.70;2.43;;;;;;;;;;5076163;28;20416;-69
2024/01/11 10:53:43;;;;;;;6.60;2.60;;;;;;;;;;5061024;28;20390;-69
2024/01/11 10:56:11;;;;;;;5.43;2.83;;;;;;;;;;5058935;28;20961;-68
2024/01/11 10:58:46;;;;;;;6.30;2.40;;;;;;;;;;5041463;28;20428;-68
2024/01/11 11:01:13;;;;;;;6.10;2.50;;;;;;;;;;5042124;28;20409;-69
2024/01/11 11:03:43;;;;;;;5.27;2.93;;;;;;;;;;5058903;28;20543;-68
2024/01/11 11:06:09;;;;;;;5.90;2.60;;;;;;;;;;5041810;28;20420;-69
2024/01/11 11:08:37;;;;;;;5.50;2.40;;;;;;;;;;5058508;28;20432;-68
2024/01/11 11:11:05;;;;;;;5.80;2.37;;;;;;;;;;5058005;28;20518;-69
2024/01/11 11:13:34;;;;;;;4.57;2.73;;;;;;;;;;5041611;28;20444;-68
2024/01/11 11:16:03;;;;;;;6.67;3.10;;;;;;;;;;5042481;28;20460;-69
2024/01/11 11:18:31;;;;;;;6.80;2.80;;;;;;;;;;5057756;28;20759;-68
2024/01/11 11:25:05;;;;;;;7.40;3.27;;;;;;;;;;5075673;28;20727;-68
2024/01/11 11:27:32;;;;;;;5.77;2.90;;;;;;;;;;5057691;28;20440;-69
2024/01/11 11:29:59;;;;;;;8.67;3.10;;;;;;;;;;5075127;28;20442;-69
2024/01/11 11:32:38;;;;;;;7.10;3.00;;;;;;;;;;5057412;28;20416;-69
2024/01/11 11:35:23;;;;;;;6.00;3.30;;;;;;;;;;5060087;28;20384;-69
2024/01/11 11:37:53;;;;;;;9.50;3.60;;;;;;;;;;5057388;28;20530;-69
2024/01/11 11:40:21;;;;;;;9.00;4.23;;;;;;;;;;5058172;28;20401;-69
2024/01/11 11:42:48;;;;;;;10.70;3.70;;;;;;;;;;5057020;28;20458;-69
2024/01/11 11:45:23;;;;;;;12.23;6.23;;;;;;;;;;5057238;28;20435;-69
2024/01/11 11:48:26;;;;;;;8.57;5.53;;;;;;;;;;5060069;28;20369;-69
2024/01/11 11:51:09;;;;;;;7.73;3.60;;;;;;;;;;5057132;28;20527;-67
2024/01/11 11:53:39;;;;;;;5.00;3.90;;;;;;;;;;5058114;28;20724;-67
2024/01/11 11:56:07;;;;;;;5.17;2.80;;;;;;;;;;5074902;28;20445;-68
2024/01/11 11:58:34;;;;;;;7.73;4.70;;;;;;;;;;5056708;28;20425;-67
2024/01/11 12:01:01;;;;;;;17.17;9.30;;;;;;;;;;5041080;28;20392;-67
2024/01/11 12:03:37;;;;;;;7.87;4.87;;;;;;;;;;5057847;28;20467;-67
2024/01/11 12:06:04;;;;;;;15.37;7.80;;;;;;;;;;5057685;28;20458;-67
2024/01/11 12:08:32;;;;;;;12.37;7.10;;;;;;;;;;5040376;28;20720;-67
2024/01/11 12:10:59;;;;;;;11.53;8.00;;;;;;;;;;5057198;28;20466;-67
2024/01/11 12:13:25;;;;;;;6.50;3.17;;;;;;;;;;5056987;28;20409;-67
2024/01/11 12:15:52;;;;;;;5.90;2.63;;;;;;;;;;5040216;28;20503;-67
2024/01/11 12:18:19;;;;;;;3.03;2.03;;;;;;;;;;5056604;28;20452;-67
2024/01/11 12:20:46;;;;;;;4.97;2.70;;;;;;;;;;5056510;28;20444;-67
2024/01/11 12:23:16;;;;;;;4.17;2.20;;;;;;;;;;5073026;28;20973;-67
2024/01/11 12:25:43;;;;;;;7.70;2.47;;;;;;;;;;5074073;28;20526;-68
2024/01/11 12:28:10;;;;;;;4.57;2.30;;;;;;;;;;5056456;28;20434;-68
2024/01/11 12:30:36;;;;;;;4.47;1.60;;;;;;;;;;5056819;28;20452;-68
2024/01/11 12:33:06;;;;;;;7.03;2.07;;;;;;;;;;5056318;28;20474;-68
2024/01/11 12:35:33;;;;;;;4.20;2.00;;;;;;;;;;5057364;28;20839;-68
2024/01/11 12:38:00;;;;;;;4.07;2.13;;;;;;;;;;5056533;28;20412;-68
2024/01/11 12:40:31;;;;;;;3.77;1.70;;;;;;;;;;5056360;28;20432;-68
2024/01/11 12:42:59;;;;;;;6.40;1.93;;;;;;;;;;5039650;28;20460;-68
2024/01/11 12:45:29;;;;;;;7.57;2.13;;;;;;;;;;5039964;28;20434;-68
2024/01/11 12:47:56;;;;;;;5.57;1.63;;;;;;;;;;5041445;28;20429;-67
2024/01/11 12:50:23;;;;;;;3.33;2.00;;;;;;;;;;5056085;28;20416;-67
2024/01/11 12:53:08;;;;;;;5.00;1.60;;;;;;;;;;5055946;28;20521;-67
2024/01/11 12:55:36;;;;;;;9.17;2.33;;;;;;;;;;5056764;28;20461;-68
2024/01/11 12:58:24;;;;;;;6.30;2.03;;;;;;;;;;5056087;28;20432;-68
2024/01/11 13:00:51;;;;;;;4.97;1.93;;;;;;;;;;5040495;28;20787;-68
2024/01/11 13:03:20;;;;;;;7.87;2.30;;;;;;;;;;5039567;28;20459;-68
2024/01/11 13:05:47;;;;;;;5.77;2.33;;;;;;;;;;5040123;28;20493;-68
2024/01/11 13:08:14;;;;;;;8.03;3.30;;;;;;;;;;5073615;28;20408;-68
2024/01/11 13:10:43;;;;;;;9.00;4.13;;;;;;;;;;5073571;28;20764;-68
2024/01/11 13:13:09;;;;;;;5.57;2.93;;;;;;;;;;5073799;28;20412;-68
2024/01/11 13:15:53;;;;;;;6.00;2.63;;;;;;;;;;5058542;28;20385;-68
2024/01/11 13:18:20;;;;;;;7.70;3.60;;;;;;;;;;5039607;28;20846;-68
2024/01/11 13:20:47;;;;;;;5.90;2.60;;;;;;;;;;5073876;28;20427;-68
2024/01/11 13:23:14;;;;;;;8.13;3.40;;;;;;;;;;5055656;28;20505;-68
2024/01/11 13:25:41;;;;;;;5.73;2.60;;;;;;;;;;5074049;28;20432;-68
2024/01/11 13:28:26;;;;;;;9.63;2.70;;;;;;;;;;5044238;28;20434;-68
2024/01/11 13:30:54;;;;;;;3.90;2.13;;;;;;;;;;5039565;28;20539;-68
2024/01/11 13:33:23;;;;;;;6.97;2.87;;;;;;;;;;5055727;28;20442;-68
2024/01/11 13:35:50;;;;;;;6.20;2.10;;;;;;;;;;5039188;28;20444;-68
2024/01/11 13:38:17;;;;;;;5.33;2.63;;;;;;;;;;5039638;28;20236;-68
2024/01/11 13:40:44;;;;;;;6.93;2.20;;;;;;;;;;5073588;28;20479;-68
2024/01/11 13:43:11;;;;;;;6.10;2.50;;;;;;;;;;5073388;28;20969;-68
2024/01/11 13:45:38;;;;;;;6.40;2.57;;;;;;;;;;5055659;28;20819;-68
2024/01/11 13:48:05;;;;;;;6.77;2.07;;;;;;;;;;5056291;28;20448;-68
2024/01/11 13:50:33;;;;;;;6.63;2.10;;;;;;;;;;5039765;28;20452;-68
2024/01/11 13:53:01;;;;;;;7.13;2.93;;;;;;;;;;5039093;28;20602;-68
2024/01/11 13:55:46;;;;;;;8.20;2.80;;;;;;;;;;5058683;28;20389;-68
2024/01/11 13:58:13;;;;;;;6.13;2.60;;;;;;;;;;5038985;28;20482;-68
2024/01/11 14:00:40;;;;;;;5.27;2.10;;;;;;;;;;5036035;28;20465;-68
2024/01/11 14:03:08;;;;;;;5.97;2.27;;;;;;;;;;5035370;28;20548;-69
2024/01/11 14:05:36;;;;;;;4.23;1.60;;;;;;;;;;5036531;28;20445;-68
2024/01/11 14:08:05;;;;;;;3.27;1.47;;;;;;;;;;5057030;28;20496;-68
2024/01/11 14:10:32;;;;;;;4.80;1.23;;;;;;;;;;5023545;28;20477;-68
2024/01/11 14:13:00;;;;;;;4.40;1.47;;;;;;;;;;5039370;28;20413;-68
2024/01/11 14:15:44;;;;;;;3.87;1.60;;;;;;;;;;5011922;28;20472;-68
2024/01/11 14:18:11;;;;;;;3.97;1.90;;;;;;;;;;5039290;28;20420;-69
2024/01/11 14:20:38;;;;;;;6.43;2.07;;;;;;;;;;5022689;28;20899;-68
2024/01/11 14:23:05;;;;;;;5.53;1.60;;;;;;;;;;5038637;28;20524;-68
2024/01/11 14:25:32;;;;;;;2.73;1.47;;;;;;;;;;5039048;28;20429;-68
2024/01/11 14:27:59;;;;;;;5.90;1.33;;;;;;;;;;5038781;28;20417;-69
2024/01/11 14:30:26;;;;;;;3.40;1.53;;;;;;;;;;5057062;28;20448;-69
2024/01/11 14:32:53;;;;;;;2.73;1.07;;;;;;;;;;5022894;28;20866;-68
2024/01/11 14:35:20;;;;;;;5.30;1.50;;;;;;;;;;5038787;28;20433;-68
2024/01/11 14:37:46;;;;;;;6.27;1.70;;;;;;;;;;5057011;28;20413;-68
2024/01/11 14:40:13;;;;;;;3.80;1.53;;;;;;;;;;5022648;28;20437;-68
2024/01/11 14:42:41;;;;;;;4.47;1.50;;;;;;;;;;5038475;28;20508;-68
2024/01/11 14:45:09;;;;;;;4.60;1.47;;;;;;;;;;5056598;28;20836;-68
2024/01/11 14:47:38;;;;;;;7.53;2.50;;;;;;;;;;5022409;28;20449;-68
2024/01/11 14:50:09;;;;;;;4.53;1.50;;;;;;;;;;5022633;28;20476;-68
2024/01/11 14:52:39;;;;;;;5.87;1.67;;;;;;;;;;5039496;28;20411;-68
2024/01/11 14:55:07;;;;;;;6.47;2.27;;;;;;;;;;5055855;28;20432;-68
2024/01/11 14:57:34;;;;;;;3.07;1.30;;;;;;;;;;5022033;28;20441;-68
2024/01/11 15:00:04;;;;;;;8.13;4.43;;;;;;;;;;5068580;28;20459;-68
2024/01/11 15:02:49;;;;;;;9.37;3.87;;;;;;;;;;5047245;28;20689;-68
2024/01/11 15:05:16;;;;;;;5.90;2.47;;;;;;;;;;5057966;28;20522;-68
2024/01/11 15:07:43;;;;;;;3.03;1.50;;;;;;;;;;5074937;28;20432;-68
2024/01/11 15:10:10;;;;;;;5.60;3.30;;;;;;;;;;5058509;28;20474;-68
2024/01/11 15:12:36;;;;;;;5.10;1.87;;;;;;;;;;5057895;28;20427;-68
2024/01/11 15:15:20;;;;;;;10.77;5.90;;;;;;;;;;5035778;28;20450;-68
2024/01/11 15:17:47;;;;;;;7.70;3.27;;;;;;;;;;5076001;28;20425;-68
2024/01/11 15:20:31;;;;;;;6.57;3.63;;;;;;;;;;5060957;28;20396;-68
2024/01/11 15:22:58;;;;;;;16.30;8.03;;;;;;;;;;5075652;28;20415;-68
2024/01/11 15:25:26;;;;;;;16.03;6.67;;;;;;;;;;5041170;28;20857;-68
2024/01/11 15:27:54;;;;;;;25.20;13.13;;;;;;;;;;5075271;28;20427;-68
2024/01/11 15:30:21;;;;;;;15.20;7.30;;;;;;;;;;5057986;28;20506;-68
2024/01/11 15:32:49;;;;;;;6.43;3.90;;;;;;;;;;5041971;28;20434;-68
2024/01/11 15:35:17;;;;;;;10.50;5.80;;;;;;;;;;5057668;28;20455;-68
2024/01/11 15:37:44;;;;;;;5.23;3.60;;;;;;;;;;5057404;28;20791;-68
2024/01/11 15:40:28;;;;;;;7.47;4.43;;;;;;;;;;5075021;28;20376;-68
2024/01/11 15:42:55;;;;;;;3.70;2.37;;;;;;;;;;5075443;28;20418;-68
2024/01/11 15:45:21;;;;;;;3.33;1.60;;;;;;;;;;5075116;28;20459;-68
2024/01/11 15:47:48;;;;;;;6.33;2.40;;;;;;;;;;5057492;28;20424;-68